createdAt,value
2018-01-07T00:01:49.462Z,32.53
2018-01-07T00:04:54.549Z,32.80
2018-01-07T00:08:00.152Z,32.53
2018-01-07T00:11:05.113Z,25.87
2018-01-07T00:14:10.462Z,26.00
2018-01-07T00:17:15.724Z,28.30
2018-01-07T00:20:21.343Z,28.30
2018-01-07T00:23:26.412Z,30.10
2018-01-07T00:26:31.428Z,28.00
2018-01-07T00:29:37.073Z,27.13
2018-01-07T00:32:43.163Z,25.20
2018-01-07T00:35:48.562Z,25.40
2018-01-07T00:38:53.766Z,21.03
2018-01-07T00:42:00.001Z,23.63
2018-01-07T00:45:06.445Z,26.77
2018-01-07T00:48:12.633Z,24.27
2018-01-07T00:51:17.913Z,28.47
2018-01-07T00:54:23.557Z,24.30
2018-01-07T00:57:29.485Z,25.57
2018-01-07T01:00:35.206Z,23.47
2018-01-07T01:03:40.342Z,28.80
2018-01-07T01:06:45.811Z,29.60
2018-01-07T01:09:51.230Z,24.30
2018-01-07T01:12:56.987Z,21.63
2018-01-07T01:16:02.938Z,21.20
2018-01-07T01:19:07.982Z,20.83
2018-01-07T01:22:13.817Z,25.63
2018-01-07T01:25:18.672Z,21.93
2018-01-07T01:28:23.618Z,22.20
2018-01-07T01:31:29.334Z,19.60
2018-01-07T01:34:34.938Z,19.77
2018-01-07T01:37:40.210Z,21.47
2018-01-07T01:40:45.137Z,19.00
2018-01-07T01:43:51.039Z,28.93
2018-01-07T01:46:56.662Z,17.30
2018-01-07T01:50:02.614Z,23.37
2018-01-07T01:53:08.391Z,25.00
2018-01-07T01:56:19.533Z,21.60
2018-01-07T01:59:25.157Z,17.37
2018-01-07T02:02:30.465Z,17.90
2018-01-07T02:05:35.778Z,17.03
2018-01-07T02:08:41.573Z,20.10
2018-01-07T02:11:47.155Z,25.37
2018-01-07T02:14:53.558Z,19.97
2018-01-07T02:17:58.935Z,23.43
2018-01-07T02:21:05.285Z,18.07
2018-01-07T02:24:10.705Z,25.33
2018-01-07T02:27:16.033Z,20.10
2018-01-07T02:30:21.629Z,26.67
2018-01-07T02:33:27.156Z,19.10
2018-01-07T02:36:32.052Z,20.93
2018-01-07T02:39:37.043Z,19.23
2018-01-07T02:42:42.801Z,20.20
2018-01-07T02:45:48.360Z,20.60
2018-01-07T02:48:53.414Z,21.47
2018-01-07T02:51:58.938Z,14.70
2018-01-07T02:55:04.563Z,16.63
2018-01-07T02:58:09.813Z,15.40
2018-01-07T03:01:15.937Z,18.90
2018-01-07T03:04:20.902Z,15.43
2018-01-07T03:07:26.186Z,19.00
2018-01-07T03:10:31.833Z,16.27
2018-01-07T03:13:37.214Z,17.60
2018-01-07T03:16:43.042Z,15.13
2018-01-07T03:19:48.306Z,16.33
2018-01-07T03:22:53.442Z,14.93
2018-01-07T03:25:58.777Z,17.10
2018-01-07T03:29:03.957Z,14.87
2018-01-07T03:32:10.474Z,13.60
2018-01-07T03:35:16.166Z,18.00
2018-01-07T03:38:22.547Z,16.10
2018-01-07T03:41:28.462Z,13.53
2018-01-07T03:44:33.278Z,12.20
2018-01-07T03:47:39.070Z,14.90
2018-01-07T03:50:44.186Z,13.43
2018-01-07T03:53:49.571Z,12.73
2018-01-07T03:56:55.419Z,16.60
2018-01-07T04:00:01.518Z,14.00
2018-01-07T04:03:07.037Z,10.37
2018-01-07T04:06:12.554Z,15.30
2018-01-07T04:09:18.311Z,12.53
2018-01-07T04:12:23.577Z,13.30
2018-01-07T04:15:29.154Z,12.03
2018-01-07T04:18:35.374Z,9.67
2018-01-07T04:21:41.099Z,9.60
2018-01-07T04:24:46.488Z,9.73
2018-01-07T04:27:52.961Z,10.53
2018-01-07T04:30:58.760Z,9.10
2018-01-07T04:34:04.411Z,11.53
2018-01-07T04:37:09.546Z,9.67
2018-01-07T04:40:15.225Z,13.90
2018-01-07T04:43:21.073Z,11.27
2018-01-07T04:46:26.302Z,12.17
2018-01-07T04:49:32.214Z,14.57
2018-01-07T04:52:37.730Z,15.13
2018-01-07T04:55:43.645Z,13.00
2018-01-07T04:58:48.689Z,14.77
2018-01-07T05:01:54.078Z,13.07
2018-01-07T05:04:59.221Z,14.63
2018-01-07T05:08:04.438Z,15.80
2018-01-07T05:11:09.682Z,15.27
2018-01-07T05:14:15.211Z,11.33
2018-01-07T05:17:20.747Z,13.60
2018-01-07T05:20:26.334Z,10.47
2018-01-07T05:23:33.023Z,10.77
2018-01-07T05:26:38.514Z,13.10
2018-01-07T05:29:44.658Z,16.20
2018-01-07T05:32:50.098Z,12.83
2018-01-07T05:35:54.850Z,15.13
2018-01-07T05:38:59.921Z,12.23
2018-01-07T05:42:05.473Z,17.90
2018-01-07T05:45:10.873Z,14.40
2018-01-07T05:48:15.913Z,16.20
2018-01-07T05:51:21.555Z,12.60
2018-01-07T05:54:26.623Z,15.97
2018-01-07T05:57:31.885Z,15.70
2018-01-07T06:00:37.526Z,13.00
2018-01-07T06:03:42.962Z,15.70
2018-01-07T06:06:48.542Z,14.70
2018-01-07T06:09:54.450Z,13.23
2018-01-07T06:13:00.142Z,15.40
2018-01-07T06:16:05.638Z,15.20
2018-01-07T06:19:10.972Z,13.57
2018-01-07T06:22:15.961Z,10.10
2018-01-07T06:25:22.310Z,15.23
2018-01-07T06:28:28.060Z,12.57
2018-01-07T06:31:33.351Z,16.33
2018-01-07T06:34:39.902Z,14.67
2018-01-07T06:37:44.738Z,14.60
2018-01-07T06:40:49.597Z,12.07
2018-01-07T06:43:54.594Z,11.87
2018-01-07T06:46:59.858Z,11.33
2018-01-07T06:50:04.790Z,11.63
2018-01-07T06:53:09.834Z,10.43
2018-01-07T06:56:14.729Z,13.73
2018-01-07T06:59:20.650Z,11.67
2018-01-07T07:02:25.957Z,11.60
2018-01-07T07:05:30.802Z,9.40
2018-01-07T07:08:37.105Z,10.73
2018-01-07T07:11:42.826Z,9.37
2018-01-07T07:14:47.950Z,10.10
2018-01-07T07:17:52.733Z,8.83
2018-01-07T07:20:58.118Z,10.00
2018-01-07T07:24:04.254Z,9.20
2018-01-07T07:27:09.766Z,10.10
2018-01-07T07:30:14.654Z,8.43
2018-01-07T07:33:20.293Z,9.77
2018-01-07T07:36:25.776Z,8.23
2018-01-07T07:39:31.249Z,7.80
2018-01-07T07:42:36.081Z,11.80
2018-01-07T07:45:40.949Z,7.83
2018-01-07T07:48:46.074Z,7.83
2018-01-07T07:51:51.209Z,8.50
2018-01-07T07:54:56.260Z,8.17
2018-01-07T07:58:01.088Z,7.90
2018-01-07T08:01:07.331Z,8.70
2018-01-07T08:04:13.550Z,9.67
2018-01-07T08:07:18.894Z,10.83
2018-01-07T08:10:24.670Z,7.17
2018-01-07T08:13:31.408Z,8.17
2018-01-07T08:16:37.198Z,8.80
2018-01-07T08:19:43.047Z,8.10
2018-01-07T08:22:50.714Z,10.27
2018-01-07T08:25:56.146Z,8.20
2018-01-07T08:29:01.463Z,13.73
2018-01-07T08:32:06.657Z,10.97
2018-01-07T08:35:13.011Z,8.17
2018-01-07T08:38:18.175Z,8.53
2018-01-07T08:41:23.034Z,9.93
2018-01-07T08:44:28.458Z,8.93
2018-01-07T08:47:34.094Z,8.30
2018-01-07T08:50:39.518Z,8.20
2018-01-07T08:53:44.965Z,7.60
2018-01-07T08:56:49.734Z,7.67
2018-01-07T08:59:55.562Z,9.20
2018-01-07T09:03:00.982Z,7.77
2018-01-07T09:06:06.762Z,6.80
2018-01-07T09:09:11.641Z,6.93
2018-01-07T09:12:16.870Z,7.20
2018-01-07T09:15:21.922Z,7.30
2018-01-07T09:18:26.745Z,6.87
2018-01-07T09:21:31.858Z,7.13
2018-01-07T09:24:37.586Z,9.70
2018-01-07T09:27:43.434Z,7.20
2018-01-07T09:30:49.029Z,8.70
2018-01-07T09:33:54.594Z,10.57
2018-01-07T09:37:00.091Z,8.27
2018-01-07T09:40:05.590Z,6.80
2018-01-07T09:43:10.673Z,8.50
2018-01-07T09:46:15.942Z,8.90
2018-01-07T09:49:21.834Z,7.97
2018-01-07T09:52:27.953Z,11.93
2018-01-07T09:55:33.314Z,7.47
2018-01-07T09:58:38.554Z,8.20
2018-01-07T10:01:43.869Z,8.53
2018-01-07T10:04:48.830Z,8.10
2018-01-07T10:07:53.698Z,8.37
2018-01-07T10:10:58.578Z,8.37
2018-01-07T10:14:04.373Z,7.83
2018-01-07T10:17:10.173Z,7.33
2018-01-07T10:20:16.249Z,8.97
2018-01-07T10:23:22.324Z,7.40
2018-01-07T10:26:27.149Z,7.20
2018-01-07T10:29:32.761Z,7.20
2018-01-07T10:32:38.204Z,8.60
2018-01-07T10:35:44.673Z,14.20
2018-01-07T10:38:50.010Z,7.30
2018-01-07T10:41:55.732Z,6.83
2018-01-07T10:45:01.937Z,9.47
2018-01-07T10:48:07.717Z,6.47
2018-01-07T10:51:13.297Z,8.50
2018-01-07T10:54:18.265Z,8.53
2018-01-07T10:57:24.458Z,6.40
2018-01-07T11:00:29.333Z,6.80
2018-01-07T11:03:34.477Z,5.10
2018-01-07T11:06:39.667Z,7.67
2018-01-07T11:09:44.903Z,4.97
2018-01-07T11:12:49.878Z,6.00
2018-01-07T11:15:55.482Z,6.20
2018-01-07T11:19:01.190Z,6.17
2018-01-07T11:22:06.034Z,5.20
2018-01-07T11:25:11.274Z,4.70
2018-01-07T11:28:16.316Z,5.60
2018-01-07T11:31:21.677Z,3.63
2018-01-07T11:34:27.148Z,4.20
2018-01-07T11:37:32.597Z,4.00
2018-01-07T11:40:38.161Z,6.80
2018-01-07T11:43:43.862Z,4.13
2018-01-07T11:46:50.302Z,4.30
2018-01-07T11:49:56.047Z,5.00
2018-01-07T11:53:01.970Z,3.20
2018-01-07T11:56:07.237Z,4.90
2018-01-07T11:59:12.510Z,3.47
2018-01-07T12:02:19.123Z,3.00
2018-01-07T12:05:23.934Z,3.43
2018-01-07T12:08:29.589Z,3.33
2018-01-07T12:11:35.154Z,3.47
2018-01-07T12:14:40.213Z,3.90
2018-01-07T12:17:46.066Z,3.40
2018-01-07T12:20:51.759Z,3.20
2018-01-07T12:23:57.565Z,3.60
2018-01-07T12:27:02.730Z,2.80
2018-01-07T12:30:08.138Z,3.43
2018-01-07T12:33:13.014Z,3.20
2018-01-07T12:36:18.462Z,3.43
2018-01-07T12:39:23.684Z,3.13
2018-01-07T12:42:29.528Z,3.40
2018-01-07T12:45:35.462Z,2.97
2018-01-07T12:48:40.757Z,2.50
2018-01-07T12:51:46.215Z,3.30
2018-01-07T12:54:51.665Z,2.53
2018-01-07T12:57:56.586Z,3.53
2018-01-07T13:01:02.286Z,2.80
2018-01-07T13:04:07.846Z,2.43
2018-01-07T13:07:13.337Z,2.67
2018-01-07T13:10:18.429Z,3.30
2018-01-07T13:13:23.914Z,3.80
2018-01-07T13:16:28.810Z,4.43
2018-01-07T13:19:33.630Z,6.43
2018-01-07T13:22:39.577Z,5.20
2018-01-07T13:25:45.462Z,4.37
2018-01-07T13:28:51.838Z,6.37
2018-01-07T13:31:56.991Z,6.13
2018-01-07T13:35:02.278Z,6.30
2018-01-07T13:38:08.014Z,7.00
2018-01-07T13:41:13.577Z,8.93
2018-01-07T13:44:19.282Z,5.93
2018-01-07T13:47:25.155Z,6.47
2018-01-07T13:50:31.418Z,6.20
2018-01-07T13:53:37.185Z,6.13
2018-01-07T13:56:42.406Z,4.63
2018-01-07T13:59:47.997Z,7.87
2018-01-07T14:02:53.729Z,5.50
2018-01-07T14:05:59.830Z,6.73
2018-01-07T14:09:06.269Z,6.57
2018-01-07T14:12:12.053Z,6.23
2018-01-07T14:15:17.370Z,5.77
2018-01-07T14:18:22.742Z,4.97
2018-01-07T14:21:28.415Z,5.07
2018-01-07T14:24:33.966Z,7.03
2018-01-07T14:27:40.237Z,5.53
2018-01-07T14:30:45.826Z,4.90
2018-01-07T14:33:50.565Z,10.80
2018-01-07T14:36:55.651Z,5.73
2018-01-07T14:40:01.445Z,5.37
2018-01-07T14:43:06.739Z,6.40
2018-01-07T14:46:12.410Z,5.87
2018-01-07T14:49:17.665Z,5.97
2018-01-07T14:52:22.850Z,5.83
2018-01-07T14:55:28.234Z,4.00
2018-01-07T14:58:33.658Z,5.93
2018-01-07T15:01:39.206Z,6.43
2018-01-07T15:04:45.630Z,5.10
2018-01-07T15:07:51.782Z,6.17
2018-01-07T15:10:57.158Z,6.10
2018-01-07T15:14:03.635Z,5.03
2018-01-07T15:17:09.319Z,6.43
2018-01-07T15:20:14.362Z,5.00
2018-01-07T15:23:19.639Z,5.17
2018-01-07T15:26:25.393Z,5.10
2018-01-07T15:29:30.524Z,4.27
2018-01-07T15:32:36.042Z,4.43
2018-01-07T15:35:41.719Z,3.70
2018-01-07T15:38:46.518Z,3.97
2018-01-07T15:41:52.115Z,4.50
2018-01-07T15:44:58.066Z,5.03
2018-01-07T15:48:03.738Z,5.10
2018-01-07T15:51:08.861Z,6.07
2018-01-07T15:54:13.972Z,6.13
2018-01-07T15:57:20.439Z,5.23
2018-01-07T16:00:25.713Z,4.83
2018-01-07T16:03:31.484Z,5.70
2018-01-07T16:06:37.397Z,5.47
2018-01-07T16:09:42.973Z,4.40
2018-01-07T16:12:49.290Z,5.23
2018-01-07T16:15:54.577Z,7.03
2018-01-07T16:19:00.349Z,5.03
2018-01-07T16:22:05.662Z,5.80
2018-01-07T16:25:10.914Z,5.90
2018-01-07T16:28:16.670Z,6.07
2018-01-07T16:31:21.994Z,7.17
2018-01-07T16:34:27.298Z,5.10
2018-01-07T16:37:33.174Z,6.33
2018-01-07T16:40:38.525Z,5.70
2018-01-07T16:43:44.905Z,5.50
2018-01-07T16:46:50.662Z,5.67
2018-01-07T16:49:55.938Z,4.73
2018-01-07T16:53:02.258Z,4.70
2018-01-07T16:56:07.910Z,4.47
2018-01-07T16:59:13.777Z,7.30
2018-01-07T17:02:19.476Z,6.13
2018-01-07T17:05:25.210Z,4.53
2018-01-07T17:08:30.685Z,5.40
2018-01-07T17:11:35.634Z,6.30
2018-01-07T17:14:41.601Z,6.00
2018-01-07T17:17:47.508Z,5.43
2018-01-07T17:20:52.661Z,7.40
2018-01-07T17:23:58.138Z,5.47
2018-01-07T17:27:03.660Z,4.07
2018-01-07T17:30:08.974Z,5.07
2018-01-07T17:33:14.562Z,5.87
2018-01-07T17:36:20.045Z,5.77
2018-01-07T17:39:25.119Z,7.17
2018-01-07T17:42:30.778Z,6.43
2018-01-07T17:45:35.666Z,6.60
2018-01-07T17:48:40.882Z,5.23
2018-01-07T17:51:46.861Z,9.50
2018-01-07T17:54:52.617Z,5.20
2018-01-07T17:57:58.218Z,5.80
2018-01-07T18:01:04.174Z,5.80
2018-01-07T18:04:09.969Z,6.10
2018-01-07T18:07:15.794Z,6.83
2018-01-07T18:10:22.422Z,7.30
2018-01-07T18:13:28.206Z,5.33
2018-01-07T18:16:33.822Z,5.23
2018-01-07T18:19:39.747Z,5.00
2018-01-07T18:22:44.557Z,5.37
2018-01-07T18:25:49.630Z,5.03
2018-01-07T18:28:56.206Z,5.43
2018-01-07T18:32:02.092Z,6.23
2018-01-07T18:35:07.278Z,6.63
2018-01-07T18:38:12.302Z,6.53
2018-01-07T18:41:17.718Z,5.37
2018-01-07T18:44:23.209Z,7.80
2018-01-07T18:47:28.622Z,5.00
2018-01-07T18:50:33.715Z,6.43
2018-01-07T18:53:39.413Z,6.57
2018-01-07T18:56:44.758Z,7.30
2018-01-07T18:59:49.805Z,5.87
2018-01-07T19:02:55.586Z,6.13
2018-01-07T19:06:01.283Z,5.30
2018-01-07T19:09:06.926Z,5.20
2018-01-07T19:12:13.079Z,6.80
2018-01-07T19:15:19.103Z,8.63
2018-01-07T19:18:24.642Z,6.00
2018-01-07T19:21:30.721Z,6.23
2018-01-07T19:24:36.593Z,7.27
2018-01-07T19:27:41.429Z,5.80
2018-01-07T19:30:47.138Z,7.97
2018-01-07T19:33:52.338Z,6.07
2018-01-07T19:36:57.274Z,7.93
2018-01-07T19:40:03.614Z,5.87
2018-01-07T19:43:09.062Z,7.57
2018-01-07T19:46:13.894Z,7.67
2018-01-07T19:49:19.939Z,6.43
2018-01-07T19:52:25.050Z,8.03
2018-01-07T19:55:31.641Z,9.33
2018-01-07T19:58:36.813Z,9.33
2018-01-07T20:01:42.653Z,6.70
2018-01-07T20:04:48.325Z,7.27
2018-01-07T20:07:53.439Z,6.53
2018-01-07T20:10:58.668Z,7.93
2018-01-07T20:14:04.265Z,6.00
2018-01-07T20:17:10.014Z,5.87
2018-01-07T20:20:15.146Z,7.97
2018-01-07T20:23:19.990Z,7.30
2018-01-07T20:26:25.226Z,7.63
2018-01-07T20:29:30.673Z,6.70
2018-01-07T20:32:37.302Z,7.90
2018-01-07T20:35:42.534Z,7.23
2018-01-07T20:38:47.823Z,8.50
2018-01-07T20:41:54.182Z,8.40
2018-01-07T20:45:00.818Z,8.50
2018-01-07T20:48:06.156Z,6.27
2018-01-07T20:51:11.811Z,7.73
2018-01-07T20:54:16.911Z,6.20
2018-01-07T20:57:21.919Z,6.67
2018-01-07T21:00:27.186Z,8.30
2018-01-07T21:03:32.761Z,8.33
2018-01-07T21:06:38.135Z,6.33
2018-01-07T21:09:43.490Z,8.27
2018-01-07T21:12:49.542Z,7.60
2018-01-07T21:15:54.790Z,10.13
2018-01-07T21:19:00.678Z,8.83
2018-01-07T21:22:05.722Z,8.70
2018-01-07T21:25:10.878Z,8.90
2018-01-07T21:28:15.727Z,8.67
2018-01-07T21:31:21.015Z,8.50
2018-01-07T21:34:27.062Z,8.97
2018-01-07T21:37:32.138Z,8.60
2018-01-07T21:40:37.232Z,7.10
2018-01-07T21:43:43.326Z,8.80
2018-01-07T21:46:48.418Z,9.73
2018-01-07T21:49:54.126Z,7.57
2018-01-07T21:53:01.022Z,8.40
2018-01-07T21:56:06.894Z,8.90
2018-01-07T21:59:12.742Z,8.47
2018-01-07T22:02:27.762Z,12.47
2018-01-07T22:05:32.739Z,8.47
2018-01-07T22:08:38.605Z,9.00
2018-01-07T22:11:44.191Z,10.07
2018-01-07T22:14:49.681Z,10.53
2018-01-07T22:17:54.714Z,10.00
2018-01-07T22:21:08.475Z,8.80
2018-01-07T22:24:13.746Z,7.00
2018-01-07T22:27:20.091Z,9.10
2018-01-07T22:30:25.253Z,8.43
2018-01-07T22:33:30.576Z,6.80
2018-01-07T22:36:35.988Z,8.53
2018-01-07T22:39:44.341Z,8.83
2018-01-07T22:42:51.256Z,9.00
2018-01-07T22:45:56.889Z,8.60
2018-01-07T22:49:02.508Z,9.50
2018-01-07T22:52:08.128Z,10.30
2018-01-07T22:55:13.546Z,7.73
2018-01-07T22:58:18.550Z,7.67
2018-01-07T23:01:25.030Z,8.80
2018-01-07T23:04:30.457Z,10.77
2018-01-07T23:07:36.569Z,7.73
2018-01-07T23:10:41.722Z,9.47
2018-01-07T23:13:46.649Z,7.90
2018-01-07T23:16:51.416Z,8.83
2018-01-07T23:19:57.924Z,8.50
2018-01-07T23:23:02.922Z,10.00
2018-01-07T23:26:08.658Z,7.60
2018-01-07T23:29:14.253Z,10.17
2018-01-07T23:32:19.969Z,10.50
2018-01-07T23:35:25.663Z,9.37
2018-01-07T23:38:31.345Z,14.87
2018-01-07T23:41:37.789Z,10.80
2018-01-07T23:44:42.577Z,11.13
2018-01-07T23:47:48.054Z,13.20
2018-01-07T23:50:54.054Z,9.30
2018-01-07T23:53:59.648Z,11.53
2018-01-07T23:57:05.399Z,17.77
